Terminal Aerodrome Forecast
Issued by NWS

Home | Current Version | Previous Version | Text Only | Print | Product List | Glossary On
Versions: 1 2 3 4 5 6 7 8 9 10 11 12 13 14 15 16 17 18 19
000
FTUS41 KBOX 222320
TAFFMH
TAF
KFMH 222320Z 2300/2324 21015G25KT P6SM SCT015 BKN040
     FM230200 21016G26KT P6SM SCT008 BKN040
     FM230400 21016KT P6SM BKN040
     FM230600 22016KT 6SM BR OVC010
     FM231200 23009KT P6SM VCSH BKN035
     FM232100 24007KT P6SM BKN090=

USA.gov is the U.S. government's official web portal to all federal, state and local government web resources and services.